Mesaieed — A7NA — position and weather

sailwx.info

Track history (hours):
 
Tides and Currents Weather Stations Pressure Air Temp Water Temp Dewpoint Dewpoint Depression Visibility Wind Speed Wind Dir Waves Ship Positions

Mesaieed

Last reported at 2017-Nov-20 00:30 UTC. Time now 2017-Nov-24 05:49 UTC.
Position N 36°41' E 000°36'.

Length 244 m; draft 9 m.

Type: Tanker. MMSI: 466243000.

Date/timePositionNaut miles runAvg speedWind from/ knotsBaromVisibWave heightAir tempDewpointWater temp
2017-Nov-20 00:30N 36°41' E 000°36'1313.9
2017-Nov-19 23:36N 36°32' E 000°25'  
2017-Nov-15 19:51N 36°06' W 005°09'412.5
2017-Nov-15 19:31N 36°06' W 005°14'610.8
2017-Nov-15 19:00N 36°05' W 005°21'2 3.2
2017-Nov-15 18:30N 36°06' W 005°22'0 0.1
2017-Nov-15 18:00N 36°06' W 005°22'0 0.1
2017-Nov-15 17:03N 36°06' W 005°22'0 0.0
2017-Nov-15 16:45N 36°06' W 005°22'0 0.0
2017-Nov-15 16:27N 36°06' W 005°22'0 0.1
2017-Nov-15 15:57N 36°06' W 005°22'0 0.0
2017-Nov-15 15:00N 36°06' W 005°22'0 0.0
2017-Nov-15 12:21N 36°06' W 005°22'0 0.1
2017-Nov-15 11:54N 36°06' W 005°22'0 0.0
2017-Nov-15 09:48N 36°06' W 005°22'0 0.0
2017-Nov-15 07:45N 36°06' W 005°22'0 0.0
2017-Nov-15 07:30N 36°06' W 005°22'0 0.1
2017-Nov-15 06:54N 36°06' W 005°22'0 0.1
2017-Nov-15 06:30N 36°06' W 005°22'0 0.1
2017-Nov-15 06:00N 36°06' W 005°22'0 0.0
2017-Nov-15 05:30N 36°06' W 005°22'0 0.0
2017-Nov-15 05:00N 36°06' W 005°22'0 0.0
2017-Nov-15 04:30N 36°06' W 005°22'0 0.1
2017-Nov-15 04:00N 36°06' W 005°22'0 0.5
2017-Nov-15 03:30N 36°06' W 005°22'1 1.8
2017-Nov-15 03:00N 36°05' W 005°22'2 3.9
2017-Nov-15 02:30N 36°05' W 005°19'4 7.7
2017-Nov-15 02:00N 36°06' W 005°14'8 4.3
2017-Nov-15 00:17N 36°08' W 005°06'0 1.7
2017-Nov-15 00:00N 36°08' W 005°06'3 5.2
2017-Nov-14 23:30N 36°10' W 005°08'8 0.9
2017-Nov-14 14:05N 36°04' W 005°14'115.1
2017-Nov-14 14:00N 36°03' W 005°15'815.9
2017-Nov-14 13:31N 35°59' W 005°23'16714.6
2017-Nov-14 02:04N 36°06' W 008°50'214.9
2017-Nov-14 01:57N 36°07' W 008°52'714.8
2017-Nov-14 01:30N 36°07' W 009°00'714.8
2017-Nov-14 01:00N 36°08' W 009°09'714.7
2017-Nov-14 00:30N 36°09' W 009°18'69114.1
2017-Nov-11 23:31N 36°39' W 023°36'113.3
2017-Nov-11 23:25N 36°39' W 023°37'613.4
2017-Nov-11 22:58N 36°39' W 023°45'613.4
2017-Nov-11 22:30N 36°39' W 023°52'713.4
2017-Nov-11 22:00N 36°38' W 024°01'713.3
2017-Nov-11 21:30N 36°38' W 024°09'713.3
2017-Nov-11 21:01N 36°38' W 024°17'713.2
2017-Nov-11 20:30N 36°38' W 024°26'713.4
2017-Nov-11 20:00N 36°37' W 024°34'713.2
2017-Nov-11 19:30N 36°37' W 024°42'713.3
2017-Nov-11 19:00N 36°37' W 024°50'713.3
2017-Nov-11 18:30N 36°36' W 024°59'713.0
2017-Nov-11 18:00N 36°36' W 025°07'713.3
2017-Nov-11 17:30N 36°36' W 025°15'713.5
2017-Nov-11 17:00N 36°36' W 025°23'713.6
2017-Nov-11 16:30N 36°35' W 025°32'713.6
2017-Nov-11 16:00N 36°35' W 025°40'713.3
2017-Nov-11 15:30N 36°34' W 025°48'713.1
2017-Nov-11 15:00N 36°34' W 025°57'612.9
2017-Nov-11 14:30N 36°34' W 026°05'612.9
2017-Nov-11 14:00N 36°33' W 026°13'713.3
2017-Nov-11 13:30N 36°33' W 026°21'1213.4
2017-Nov-11 12:39N 36°32' W 026°35'5213.3
2017-Nov-11 08:42N 36°29' W 027°40'313.3
2017-Nov-11 08:27N 36°28' W 027°45'613.4
2017-Nov-11 08:00N 36°28' W 027°52'5213.0
2017-Nov-11 03:59N 36°24' W 028°57'812.5
2017-Nov-11 03:22N 36°23' W 029°06'512.5
2017-Nov-11 03:00N 36°23' W 029°12'1113.0
2017-Nov-11 02:10N 36°22' W 029°25'  
Track history (hours):
 
Tides and Currents Weather Stations Pressure Air Temp Water Temp Dewpoint Dewpoint Depression Visibility Wind Speed Wind Dir Waves Ship Positions

Mesaieed

Last reported at 2017-Nov-20 00:30 UTC. Time now 2017-Nov-24 05:49 UTC.
Position N 36°41' E 000°36'.

Length 244 m; draft 9 m.

Type: Tanker. MMSI: 466243000.

Date/timePositionNaut miles runAvg speedWind from/ knotsBaromVisibWave heightAir tempDewpointWater temp
2017-Nov-20 00:30N 36°41' E 000°36'1313.9
2017-Nov-19 23:36N 36°32' E 000°25'  
2017-Nov-15 19:51N 36°06' W 005°09'412.5
2017-Nov-15 19:31N 36°06' W 005°14'610.8
2017-Nov-15 19:00N 36°05' W 005°21'2 3.2
2017-Nov-15 18:30N 36°06' W 005°22'0 0.1
2017-Nov-15 18:00N 36°06' W 005°22'0 0.1
2017-Nov-15 17:03N 36°06' W 005°22'0 0.0
2017-Nov-15 16:45N 36°06' W 005°22'0 0.0
2017-Nov-15 16:27N 36°06' W 005°22'0 0.1
2017-Nov-15 15:57N 36°06' W 005°22'0 0.0
2017-Nov-15 15:00N 36°06' W 005°22'0 0.0
2017-Nov-15 12:21N 36°06' W 005°22'0 0.1
2017-Nov-15 11:54N 36°06' W 005°22'0 0.0
2017-Nov-15 09:48N 36°06' W 005°22'0 0.0
2017-Nov-15 07:45N 36°06' W 005°22'0 0.0
2017-Nov-15 07:30N 36°06' W 005°22'0 0.1
2017-Nov-15 06:54N 36°06' W 005°22'0 0.1
2017-Nov-15 06:30N 36°06' W 005°22'0 0.1
2017-Nov-15 06:00N 36°06' W 005°22'0 0.0
2017-Nov-15 05:30N 36°06' W 005°22'0 0.0
2017-Nov-15 05:00N 36°06' W 005°22'0 0.0
2017-Nov-15 04:30N 36°06' W 005°22'0 0.1
2017-Nov-15 04:00N 36°06' W 005°22'0 0.5
2017-Nov-15 03:30N 36°06' W 005°22'1 1.8
2017-Nov-15 03:00N 36°05' W 005°22'2 3.9
2017-Nov-15 02:30N 36°05' W 005°19'4 7.7
2017-Nov-15 02:00N 36°06' W 005°14'8 4.3
2017-Nov-15 00:17N 36°08' W 005°06'0 1.7
2017-Nov-15 00:00N 36°08' W 005°06'3 5.2
2017-Nov-14 23:30N 36°10' W 005°08'8 0.9
2017-Nov-14 14:05N 36°04' W 005°14'115.1
2017-Nov-14 14:00N 36°03' W 005°15'815.9
2017-Nov-14 13:31N 35°59' W 005°23'16714.6
2017-Nov-14 02:04N 36°06' W 008°50'214.9
2017-Nov-14 01:57N 36°07' W 008°52'714.8
2017-Nov-14 01:30N 36°07' W 009°00'714.8
2017-Nov-14 01:00N 36°08' W 009°09'714.7
2017-Nov-14 00:30N 36°09' W 009°18'69114.1
2017-Nov-11 23:31N 36°39' W 023°36'113.3
2017-Nov-11 23:25N 36°39' W 023°37'613.4
2017-Nov-11 22:58N 36°39' W 023°45'613.4
2017-Nov-11 22:30N 36°39' W 023°52'713.4
2017-Nov-11 22:00N 36°38' W 024°01'713.3
2017-Nov-11 21:30N 36°38' W 024°09'713.3
2017-Nov-11 21:01N 36°38' W 024°17'713.2
2017-Nov-11 20:30N 36°38' W 024°26'713.4
2017-Nov-11 20:00N 36°37' W 024°34'713.2
2017-Nov-11 19:30N 36°37' W 024°42'713.3
2017-Nov-11 19:00N 36°37' W 024°50'713.3
2017-Nov-11 18:30N 36°36' W 024°59'713.0
2017-Nov-11 18:00N 36°36' W 025°07'713.3
2017-Nov-11 17:30N 36°36' W 025°15'713.5
2017-Nov-11 17:00N 36°36' W 025°23'713.6
2017-Nov-11 16:30N 36°35' W 025°32'713.6
2017-Nov-11 16:00N 36°35' W 025°40'713.3
2017-Nov-11 15:30N 36°34' W 025°48'713.1
2017-Nov-11 15:00N 36°34' W 025°57'612.9
2017-Nov-11 14:30N 36°34' W 026°05'612.9
2017-Nov-11 14:00N 36°33' W 026°13'713.3
2017-Nov-11 13:30N 36°33' W 026°21'1213.4
2017-Nov-11 12:39N 36°32' W 026°35'5213.3
2017-Nov-11 08:42N 36°29' W 027°40'313.3
2017-Nov-11 08:27N 36°28' W 027°45'613.4
2017-Nov-11 08:00N 36°28' W 027°52'5213.0
2017-Nov-11 03:59N 36°24' W 028°57'812.5
2017-Nov-11 03:22N 36°23' W 029°06'512.5
2017-Nov-11 03:00N 36°23' W 029°12'1113.0
2017-Nov-11 02:10N 36°22' W 029°25'  

Dump ship's entire track history